Time;durP1;ratioP1;P1;durP2;ratioP2;P2;SDS_P1;SDS_P2;PMS_P1;PMS_P2;Temp;Humidity;BMP_temperature;BMP_pressure;BME280_temperature;BME280_humidity;BME280_pressure;Samples;Min_cycle;Max_cycle;Signal;HPM_P1;HPM_P2
2022/12/04 00:01:24;;;;;;;18.77;13.00;;;;;;;4.03;65.81;100543.50;4165415;28;20517;-73
2022/12/04 00:03:27;;;;;;;15.68;10.82;;;;;;;3.96;66.25;100551.78;4171854;28;20033;-72
2022/12/04 00:05:30;;;;;;;18.63;12.52;;;;;;;4.01;66.47;100555.41;4167693;28;20037;-72
2022/12/04 00:07:35;;;;;;;18.67;12.70;;;;;;;4.03;66.69;100548.66;4164153;28;20113;-73
2022/12/04 00:09:37;;;;;;;17.67;11.98;;;;;;;4.17;66.18;100551.78;4167277;28;20047;-73
2022/12/04 00:11:40;;;;;;;16.63;12.02;;;;;;;4.21;65.45;100542.53;4175971;28;20120;-72
2022/12/04 00:13:44;;;;;;;19.50;13.35;;;;;;;4.19;65.57;100539.84;4171594;28;20029;-73
2022/12/04 00:15:47;;;;;;;20.02;13.55;;;;;;;4.28;65.86;100536.78;4173636;28;20034;-72
2022/12/04 00:17:50;;;;;;;17.05;12.20;;;;;;;4.19;65.52;100538.19;4166257;28;20041;-72
2022/12/04 00:19:53;;;;;;;18.23;12.60;;;;;;;4.07;66.24;100545.38;4170138;28;20562;-72
2022/12/04 00:21:56;;;;;;;18.15;12.85;;;;;;;4.08;66.79;100552.28;4163920;28;20049;-70
2022/12/04 00:24:00;;;;;;;18.05;11.65;;;;;;;4.07;66.62;100542.81;4171393;28;20449;-71
2022/12/04 00:26:05;;;;;;;17.35;12.00;;;;;;;4.06;67.13;100543.63;4172458;28;20475;-71
2022/12/04 00:28:08;;;;;;;;;;;;;;;4.00;67.34;100549.41;4166833;28;20057;-71
2022/12/04 00:30:11;;;;;;;19.23;13.05;;;;;;;4.22;66.81;100544.25;4172279;28;19920;-72
2022/12/04 00:32:14;;;;;;;19.67;13.38;;;;;;;4.21;66.32;100545.09;4174593;28;20044;-72
2022/12/04 00:34:18;;;;;;;18.90;13.38;;;;;;;4.19;66.35;100539.84;4166225;28;20120;-72
2022/12/04 00:36:24;;;;;;;18.38;12.27;;;;;;;4.19;66.25;100539.84;4172796;28;20040;-72
2022/12/04 00:38:27;;;;;;;21.27;14.90;;;;;;;4.25;66.35;100532.41;4164625;28;20399;-72
2022/12/04 00:40:31;;;;;;;19.08;13.05;;;;;;;4.36;64.93;100530.25;4163421;28;20499;-72
2022/12/04 00:42:34;;;;;;;19.08;13.30;;;;;;;4.48;64.55;100522.16;4166003;28;20049;-72
2022/12/04 00:44:37;;;;;;;20.20;14.02;;;;;;;4.28;64.74;100529.06;4172055;28;20257;-72
2022/12/04 00:46:40;;;;;;;19.05;13.30;;;;;;;4.08;65.69;100525.69;4164431;28;20053;-72
2022/12/04 00:48:43;;;;;;;20.70;14.13;;;;;;;4.10;65.59;100535.22;4166803;28;20045;-72
2022/12/04 00:50:46;;;;;;;23.55;14.38;;;;;;;4.08;65.99;100529.13;4172219;28;20083;-72
2022/12/04 00:52:49;;;;;;;19.42;14.15;;;;;;;3.98;66.11;100527.88;4179661;28;20079;-72
2022/12/04 00:54:52;;;;;;;22.10;14.75;;;;;;;4.10;65.69;100524.91;4178628;28;20303;-72
2022/12/04 00:56:56;;;;;;;19.55;12.93;;;;;;;4.05;65.32;100521.28;4180520;28;20032;-71
2022/12/04 00:59:01;;;;;;;19.98;13.48;;;;;;;3.96;65.75;100520.91;4172073;28;20049;-72
2022/12/04 01:01:06;;;;;;;21.15;13.95;;;;;;;3.95;66.07;100514.88;4163729;28;20072;-72
2022/12/04 01:03:09;;;;;;;18.30;12.68;;;;;;;4.04;65.48;100513.50;4169350;28;20045;-72
2022/12/04 01:05:13;;;;;;;18.77;13.10;;;;;;;3.91;66.02;100518.13;4166067;28;20044;-72
2022/12/04 01:07:15;;;;;;;18.92;13.10;;;;;;;3.94;65.63;100509.66;4174102;28;20033;-71
2022/12/04 01:09:18;;;;;;;18.90;12.20;;;;;;;3.86;66.44;100517.06;4163897;28;20041;-71
2022/12/04 01:11:23;;;;;;;16.92;13.23;;;;;;;3.90;65.89;100515.50;4164409;28;20036;-71
2022/12/04 01:13:27;;;;;;;19.70;12.80;;;;;;;3.73;66.83;100515.66;4174336;28;20041;-72
2022/12/04 01:15:30;;;;;;;18.95;13.10;;;;;;;3.79;66.36;100518.50;4164922;28;20120;-72
2022/12/04 01:17:33;;;;;;;19.55;13.50;;;;;;;3.81;66.43;100522.03;4164804;28;20065;-71
2022/12/04 01:19:36;;;;;;;21.05;14.20;;;;;;;3.82;66.13;100518.63;4166442;28;20034;-71
2022/12/04 01:21:39;;;;;;;18.02;12.77;;;;;;;3.98;65.73;100524.41;4175007;28;20087;-72
2022/12/04 01:23:42;;;;;;;19.98;14.43;;;;;;;3.80;66.42;100524.53;4163387;28;20533;-72
2022/12/04 01:25:53;;;;;;;18.58;12.98;;;;;;;3.72;66.70;100524.19;4167963;28;20114;-71
2022/12/04 01:27:56;;;;;;;17.98;12.98;;;;;;;3.74;66.17;100530.28;4163470;28;20055;-71
2022/12/04 01:30:00;;;;;;;21.52;14.38;;;;;;;3.86;66.52;100524.78;4170200;28;20041;-72
2022/12/04 01:32:04;;;;;;;19.27;13.25;;;;;;;3.83;66.50;100519.53;4164383;28;20247;-72
2022/12/04 01:34:07;;;;;;;19.63;12.82;;;;;;;3.77;67.22;100521.84;4181354;28;20047;-72
2022/12/04 01:36:13;;;;;;;21.42;14.65;;;;;;;4.02;66.00;100526.31;4181780;28;20032;-72
2022/12/04 01:38:15;;;;;;;21.50;14.43;;;;;;;3.87;65.93;100526.56;4180301;28;20045;-72
2022/12/04 01:40:18;;;;;;;18.30;13.38;;;;;;;3.90;65.91;100541.22;4172044;28;20052;-72
2022/12/04 01:42:21;;;;;;;18.63;13.07;;;;;;;3.67;66.57;100539.41;4163780;28;20096;-71
2022/12/04 01:44:26;;;;;;;21.75;14.05;;;;;;;3.74;66.63;100532.88;4162940;28;20103;-71
2022/12/04 01:46:30;;;;;;;21.05;15.27;;;;;;;3.81;66.35;100522.03;4171426;28;20041;-71
2022/12/04 01:48:34;;;;;;;20.75;14.27;;;;;;;3.76;66.46;100523.50;4177917;28;20128;-71
2022/12/04 01:50:37;;;;;;;18.20;13.43;;;;;;;3.73;67.08;100522.50;4180215;28;20067;-71
2022/12/04 01:52:40;;;;;;;19.38;13.88;;;;;;;3.88;66.50;100522.28;4180200;28;20128;-71
2022/12/04 01:54:47;;;;;;;22.42;15.13;;;;;;;3.76;66.41;100535.50;4178065;28;20110;-71
2022/12/04 01:56:55;;;;;;;21.95;14.75;;;;;;;3.66;66.97;100536.78;4175559;28;20041;-71
2022/12/04 01:59:01;;;;;;;22.55;16.10;;;;;;;3.73;67.41;100531.09;4163665;28;20499;-72
2022/12/04 02:01:06;;;;;;;21.58;14.70;;;;;;;3.94;66.29;100522.53;4152174;28;20056;-72
2022/12/04 02:03:13;;;;;;;21.75;15.30;;;;;;;3.94;65.66;100523.44;4150075;28;20041;-72
2022/12/04 02:05:20;;;;;;;19.13;13.85;;;;;;;3.81;65.96;100528.84;4165497;28;20154;-72
2022/12/04 02:07:22;;;;;;;17.98;13.48;;;;;;;3.77;66.56;100524.41;4171119;28;20033;-72
2022/12/04 02:09:26;;;;;;;18.75;13.60;;;;;;;3.78;66.42;100524.47;4163287;28;20037;-72
2022/12/04 02:11:38;;;;;;;20.40;14.13;;;;;;;3.84;65.91;100527.28;4170675;28;20124;-71
2022/12/04 02:13:54;;;;;;;21.60;14.85;;;;;;;3.71;66.43;100535.31;4161261;28;20451;-71
2022/12/04 02:16:05;;;;;;;22.23;15.23;;;;;;;3.66;67.00;100540.25;4161817;28;20037;-71
2022/12/04 02:18:18;;;;;;;19.38;13.60;;;;;;;3.67;66.97;100533.41;4172294;28;20044;-71
2022/12/04 02:20:31;;;;;;;21.77;15.05;;;;;;;3.84;67.20;100529.88;4166270;28;20033;-72
2022/12/04 02:22:53;;;;;;;22.92;15.45;;;;;;;3.88;66.54;100530.00;4175375;28;20545;-72
2022/12/04 02:25:05;;;;;;;20.00;14.32;;;;;;;3.81;66.95;100527.16;4168334;28;20037;-71
2022/12/04 02:27:17;;;;;;;19.60;14.40;;;;;;;3.94;66.86;100527.66;4168059;28;20446;-72
2022/12/04 02:29:34;;;;;;;19.33;14.30;;;;;;;3.92;66.54;100522.47;4165896;28;20491;-72
2022/12/04 02:31:43;;;;;;;21.98;15.57;;;;;;;4.09;65.98;100522.28;4168782;28;20037;-72
2022/12/04 02:33:51;;;;;;;26.25;16.00;;;;;;;4.05;65.30;100517.84;4163482;28;20484;-71
2022/12/04 02:36:02;;;;;;;24.67;17.58;;;;;;;4.00;65.39;100526.25;4170550;28;20037;-71
2022/12/04 02:38:12;;;;;;;24.50;17.35;;;;;;;3.89;65.32;100524.91;4174174;28;20036;-71
2022/12/04 02:40:20;;;;;;;22.75;15.68;;;;;;;3.84;66.21;100534.09;4166950;28;20404;-71
2022/12/04 02:42:32;;;;;;;24.40;16.63;;;;;;;3.83;66.73;100524.66;4176274;28;20052;-72
2022/12/04 02:44:42;;;;;;;24.50;18.98;;;;;;;3.83;66.60;100520.38;4167121;28;20533;-72
2022/12/04 02:46:48;;;;;;;27.75;18.98;;;;;;;3.87;66.39;100530.81;4179468;28;20086;-72
2022/12/04 02:48:55;;;;;;;27.70;19.48;;;;;;;3.81;66.80;100531.41;4173644;28;20505;-72
2022/12/04 02:51:02;;;;;;;27.75;19.05;;;;;;;3.84;66.27;100537.59;4173802;28;20491;-72
2022/12/04 02:53:08;;;;;;;24.48;16.73;;;;;;;3.71;67.02;100532.72;4177562;28;20488;-72
2022/12/04 02:55:17;;;;;;;23.52;16.50;;;;;;;3.72;67.70;100521.63;4164857;28;20060;-72
2022/12/04 02:57:24;;;;;;;23.65;17.23;;;;;;;3.83;67.45;100514.38;4175328;28;20045;-73
2022/12/04 02:59:33;;;;;;;23.63;16.13;;;;;;;3.89;66.86;100513.75;4169532;28;20383;-72
2022/12/04 03:01:41;;;;;;;22.08;16.60;;;;;;;3.93;66.70;100510.47;4179252;28;20044;-72
2022/12/04 03:03:49;;;;;;;23.95;17.38;;;;;;;3.96;66.16;100506.34;4167702;28;20388;-72
2022/12/04 03:05:58;;;;;;;24.20;17.25;;;;;;;4.04;65.93;100506.66;4165240;28;20056;-72
2022/12/04 03:08:08;;;;;;;23.05;17.23;;;;;;;3.93;66.16;100511.38;4173411;28;20123;-73
2022/12/04 03:10:15;;;;;;;25.58;16.55;;;;;;;3.87;66.16;100500.84;4168136;28;20052;-72
2022/12/04 03:12:21;;;;;;;26.77;18.17;;;;;;;3.94;66.33;100494.25;4165577;28;20099;-72
2022/12/04 03:14:28;;;;;;;26.02;17.50;;;;;;;4.04;65.93;100493.81;4164184;28;20038;-72
2022/12/04 03:16:37;;;;;;;24.70;17.00;;;;;;;3.86;66.30;100491.34;4170805;28;20490;-71
2022/12/04 03:18:44;;;;;;;23.58;15.52;;;;;;;3.71;66.48;100486.47;4179515;28;20455;-72
2022/12/04 03:20:51;;;;;;;25.98;18.15;;;;;;;3.79;66.97;100487.63;4166276;28;20060;-72
2022/12/04 03:22:59;;;;;;;24.48;17.13;;;;;;;3.84;66.57;100501.59;4172223;28;20043;-72
2022/12/04 03:25:04;;;;;;;25.85;17.23;;;;;;;3.83;66.56;100493.81;4165488;28;20042;-72
2022/12/04 03:27:14;;;;;;;24.65;17.55;;;;;;;3.82;66.94;100492.91;4171150;28;20064;-72
2022/12/04 03:29:21;;;;;;;24.55;17.63;;;;;;;3.87;67.10;100503.41;4166058;28;20092;-71
2022/12/04 03:31:31;;;;;;;23.40;16.38;;;;;;;3.87;67.30;100497.38;4178373;28;20522;-71
2022/12/04 03:33:42;;;;;;;23.52;16.13;;;;;;;3.88;67.02;100500.00;4165635;28;20044;-71
2022/12/04 03:35:52;;;;;;;23.55;16.80;;;;;;;3.92;66.64;100498.44;4173100;28;20037;-71
2022/12/04 03:38:03;;;;;;;24.83;16.55;;;;;;;3.93;66.90;100492.47;4172501;28;20036;-72
2022/12/04 03:40:17;;;;;;;23.55;16.73;;;;;;;3.98;66.32;100493.56;4171452;28;20049;-72
2022/12/04 03:42:25;;;;;;;24.73;17.17;;;;;;;3.87;67.04;100485.41;4195193;28;20033;-71
2022/12/04 03:44:36;;;;;;;24.35;16.08;;;;;;;3.91;66.45;100492.41;4173520;28;20041;-72
2022/12/04 03:46:45;;;;;;;21.60;15.02;;;;;;;3.89;66.83;100490.63;4179396;28;20037;-72
2022/12/04 03:48:55;;;;;;;24.92;16.02;;;;;;;3.88;66.68;100489.72;4181705;28;20037;-71
2022/12/04 03:51:03;;;;;;;24.25;15.10;;;;;;;3.90;66.60;100497.50;4181899;28;20478;-71
2022/12/04 03:53:12;;;;;;;22.52;15.32;;;;;;;3.92;66.82;100489.03;4181432;28;20051;-71
2022/12/04 03:55:23;;;;;;;23.67;15.98;;;;;;;3.92;66.84;100488.16;4179980;28;20076;-71
2022/12/04 03:57:31;;;;;;;24.38;16.15;;;;;;;3.88;66.87;100486.28;4179333;28;20124;-71
2022/12/04 03:59:38;;;;;;;24.10;15.98;;;;;;;3.96;66.95;100479.75;4173088;28;20106;-71
2022/12/04 04:01:47;;;;;;;20.08;13.55;;;;;;;3.95;66.91;100485.72;4165970;28;20045;-71
2022/12/04 04:03:54;;;;;;;23.25;15.55;;;;;;;4.14;66.18;100483.06;4164277;28;20041;-71
2022/12/04 04:06:01;;;;;;;21.70;14.73;;;;;;;4.05;65.84;100475.00;4164633;28;20436;-71
2022/12/04 04:08:26;;;;;;;25.83;16.70;;;;;;;3.93;66.34;100480.50;4164827;28;20064;-71
2022/12/04 04:10:29;;;;;;;23.30;15.07;;;;;;;4.03;66.24;100476.63;4163812;28;20030;-70
2022/12/04 04:12:38;;;;;;;21.67;15.68;;;;;;;3.94;66.60;100478.81;4166213;28;20047;-71
2022/12/04 04:24:32;;;;;;;24.33;16.30;;;;;;;3.88;66.76;100469.13;4145634;28;20595;-70
2022/12/04 04:26:39;;;;;;;24.80;16.95;;;;;;;3.95;66.74;100467.72;4173036;28;20556;-71
2022/12/04 04:28:42;;;;;;;23.20;15.93;;;;;;;3.93;66.87;100457.38;4163835;28;20039;-70
2022/12/04 04:30:45;;;;;;;22.98;15.20;;;;;;;4.04;66.75;100454.34;4170258;28;20029;-71
2022/12/04 04:32:57;;;;;;;26.33;15.65;;;;;;;4.14;66.26;100459.91;4172822;28;20099;-71
2022/12/04 04:35:08;;;;;;;24.52;16.70;;;;;;;4.02;65.96;100459.44;4173168;28;20091;-71
2022/12/04 04:37:22;;;;;;;25.25;16.77;;;;;;;4.06;66.04;100457.84;4172583;28;20037;-71
2022/12/04 04:39:31;;;;;;;23.23;15.73;;;;;;;4.01;66.84;100462.81;4172977;28;20036;-71
2022/12/04 04:41:44;;;;;;;21.45;14.95;;;;;;;4.07;66.38;100455.34;4165746;28;20064;-71
2022/12/04 04:43:53;;;;;;;23.00;15.93;;;;;;;3.97;66.74;100455.78;4168351;28;20462;-72
2022/12/04 04:46:01;;;;;;;22.88;16.15;;;;;;;3.97;66.77;100446.38;4162920;28;20037;-71
2022/12/04 04:48:09;;;;;;;28.27;18.50;;;;;;;3.93;66.63;100459.03;4164468;28;20037;-71
2022/12/04 04:50:16;;;;;;;22.63;15.32;;;;;;;3.92;67.05;100458.16;4175024;28;20092;-71
2022/12/04 04:52:22;;;;;;;21.95;15.25;;;;;;;3.98;67.35;100463.56;4171809;28;20083;-71
2022/12/04 04:54:25;;;;;;;23.05;15.52;;;;;;;3.95;67.69;100471.16;4166576;28;20505;-71
2022/12/04 04:56:28;;;;;;;21.80;14.52;;;;;;;4.07;66.96;100475.03;4165554;28;20038;-71
2022/12/04 04:58:31;;;;;;;20.70;14.27;;;;;;;4.11;66.50;100475.22;4163544;28;20083;-71
2022/12/04 05:00:35;;;;;;;21.35;14.98;;;;;;;4.01;66.56;100476.53;4175366;28;20033;-71
2022/12/04 05:02:38;;;;;;;20.42;13.52;;;;;;;3.99;67.09;100483.31;4163856;28;20046;-71
2022/12/04 05:04:40;;;;;;;20.63;13.70;;;;;;;4.10;66.64;100480.31;4174317;28;20045;-72
2022/12/04 05:06:44;;;;;;;22.10;14.55;;;;;;;4.11;66.42;100482.94;4180510;28;20413;-71
2022/12/04 05:08:48;;;;;;;20.52;13.80;;;;;;;4.08;66.44;100481.97;4180502;28;20048;-72
2022/12/04 05:10:51;;;;;;;22.08;15.77;;;;;;;4.10;66.79;100485.47;4180452;28;20036;-71
2022/12/04 05:12:53;;;;;;;18.73;13.07;;;;;;;4.14;66.58;100485.63;4180407;28;20127;-71
2022/12/04 05:14:56;;;;;;;20.98;14.55;;;;;;;4.06;66.58;100489.63;4169843;28;20041;-71
2022/12/04 05:16:59;;;;;;;21.92;12.93;;;;;;;4.01;67.11;100483.38;4164007;28;20048;-71
2022/12/04 05:21:24;;;;;;;20.90;14.40;;;;;;;4.14;66.81;100483.06;4172666;28;20406;-72
2022/12/04 05:23:29;;;;;;;19.88;14.15;;;;;;;4.19;66.15;100484.16;4171679;28;20041;-71
2022/12/04 05:25:31;;;;;;;21.05;13.75;;;;;;;4.22;66.28;100480.81;4177991;28;20069;-71
2022/12/04 05:27:34;;;;;;;21.63;13.25;;;;;;;4.16;66.82;100484.03;4179148;28;20049;-71
2022/12/04 05:29:37;;;;;;;19.65;13.07;;;;;;;4.17;66.06;100478.03;4172678;28;20044;-71
2022/12/04 05:31:40;;;;;;;18.70;12.23;;;;;;;4.07;66.44;100478.50;4167867;28;20124;-71
2022/12/04 05:33:43;;;;;;;17.65;12.43;;;;;;;4.24;65.76;100475.75;4165697;28;20427;-70
2022/12/04 05:35:56;;;;;;;22.67;14.13;;;;;;;4.07;66.57;100477.63;4172426;28;20063;-71
2022/12/04 05:37:59;;;;;;;19.52;12.60;;;;;;;3.99;66.84;100479.88;4172774;28;20534;-72
2022/12/04 05:40:04;;;;;;;18.92;12.90;;;;;;;4.16;66.36;100467.69;4162594;28;20443;-72
2022/12/04 05:42:07;;;;;;;21.50;13.35;;;;;;;4.13;66.56;100473.63;4168798;28;20036;-72
2022/12/04 05:44:10;;;;;;;19.92;13.52;;;;;;;4.09;66.69;100475.97;4165994;28;20037;-72
2022/12/04 05:46:12;;;;;;;19.48;12.80;;;;;;;4.07;66.89;100475.91;4163316;28;20108;-71
2022/12/04 05:48:15;;;;;;;18.03;13.23;;;;;;;4.07;66.91;100478.50;4173456;28;20125;-72
2022/12/04 05:50:18;;;;;;;19.48;12.57;;;;;;;4.10;66.89;100481.19;4163759;28;20447;-72
2022/12/04 05:52:22;;;;;;;19.48;13.65;;;;;;;4.04;67.07;100488.66;4184061;28;20048;-71
2022/12/04 05:54:25;;;;;;;17.92;12.15;;;;;;;4.12;66.79;100484.72;4158757;28;20049;-71
2022/12/04 05:56:29;;;;;;;19.38;12.35;;;;;;;4.22;66.71;100482.50;4169860;28;20029;-72
2022/12/04 05:58:34;;;;;;;19.05;12.52;;;;;;;4.18;66.78;100486.66;4169963;28;20033;-71
2022/12/04 06:00:37;;;;;;;19.67;13.10;;;;;;;4.14;66.39;100482.19;4163184;28;20041;-71
2022/12/04 06:02:40;;;;;;;17.85;12.13;;;;;;;4.15;67.02;100476.25;4177710;28;20055;-71
2022/12/04 06:04:43;;;;;;;17.48;12.68;;;;;;;4.07;67.19;100478.50;4170353;28;20033;-71
2022/12/04 06:06:46;;;;;;;17.95;11.55;;;;;;;4.04;67.19;100492.94;4165448;28;20095;-71
2022/12/04 06:08:49;;;;;;;20.15;13.38;;;;;;;4.04;67.31;100486.09;4170787;28;20038;-71
2022/12/04 06:10:52;;;;;;;16.55;10.48;;;;;;;4.06;67.51;100492.19;4171952;28;20080;-71
2022/12/04 06:12:57;;;;;;;18.15;11.43;;;;;;;4.09;67.97;100483.69;4179195;28;20495;-71
2022/12/04 06:14:59;;;;;;;17.15;11.85;;;;;;;4.10;68.03;100486.31;4172968;28;20123;-71
2022/12/04 06:17:03;;;;;;;18.48;12.43;;;;;;;4.23;67.48;100494.56;4175185;28;20057;-71
2022/12/04 06:19:08;;;;;;;17.98;12.77;;;;;;;4.35;66.69;100489.88;4178122;28;20570;-72
2022/12/04 06:21:11;;;;;;;19.88;13.65;;;;;;;4.30;66.70;100482.00;4166178;28;20406;-71
2022/12/04 06:23:14;;;;;;;18.63;13.20;;;;;;;4.21;66.90;100475.63;4168718;28;20060;-71
2022/12/04 06:25:19;;;;;;;19.08;13.50;;;;;;;4.26;67.04;100477.53;4168964;28;20095;-71
2022/12/04 06:27:22;;;;;;;21.17;13.90;;;;;;;4.25;67.23;100480.03;4168584;28;20472;-71
2022/12/04 06:29:32;;;;;;;16.95;11.75;;;;;;;4.27;67.18;100475.84;4174574;28;20415;-71
2022/12/04 06:31:36;;;;;;;18.70;11.70;;;;;;;4.22;67.35;100477.34;4165563;28;20037;-71
2022/12/04 06:33:40;;;;;;;;;;;;;;;4.25;67.25;100485.19;4168961;28;20045;-71
2022/12/04 06:35:42;;;;;;;17.58;11.88;;;;;;;4.40;66.40;100480.66;4167330;28;19967;-71
2022/12/04 06:37:45;;;;;;;16.75;11.10;;;;;;;4.24;66.76;100481.75;4175097;28;20030;-71
2022/12/04 06:39:48;;;;;;;16.88;11.40;;;;;;;4.23;67.08;100477.41;4167790;28;20038;-71
2022/12/04 06:41:51;;;;;;;16.17;10.15;;;;;;;4.39;66.85;100480.63;4170849;28;20040;-71
2022/12/04 06:43:55;;;;;;;13.60;9.82;;;;;;;4.27;67.15;100478.44;4166478;28;20056;-71
2022/12/04 06:46:04;;;;;;;15.13;10.18;;;;;;;4.28;67.53;100482.75;4177665;28;20036;-72
2022/12/04 06:48:07;;;;;;;19.27;11.95;;;;;;;4.22;67.47;100480.81;4175075;28;20051;-71
2022/12/04 06:50:10;;;;;;;14.45;9.95;;;;;;;4.27;67.29;100475.84;4171517;28;20034;-71
2022/12/04 06:52:13;;;;;;;18.63;11.48;;;;;;;4.45;66.77;100475.69;4168511;28;20041;-71
2022/12/04 06:54:16;;;;;;;14.45;10.13;;;;;;;4.27;66.92;100476.72;4168271;28;20040;-71
2022/12/04 06:56:22;;;;;;;14.48;9.63;;;;;;;4.25;67.73;100482.63;4185560;28;20123;-71
2022/12/04 06:58:25;;;;;;;15.27;10.77;;;;;;;4.25;67.68;100483.53;4170976;28;20041;-71
2022/12/04 07:00:28;;;;;;;20.10;13.07;;;;;;;4.40;67.30;100478.09;4175546;28;20442;-71
2022/12/04 07:02:32;;;;;;;18.13;11.77;;;;;;;4.45;66.80;100476.56;4167444;28;20132;-71
2022/12/04 07:04:35;;;;;;;20.33;10.98;;;;;;;4.46;66.46;100473.19;4171785;28;20046;-72
2022/12/04 07:06:39;;;;;;;16.20;10.65;;;;;;;4.38;66.82;100479.75;4165435;28;20052;-71
2022/12/04 07:08:42;;;;;;;16.58;10.35;;;;;;;4.37;67.05;100484.00;4178551;28;20123;-71
2022/12/04 07:10:45;;;;;;;18.88;11.35;;;;;;;4.34;67.04;100485.59;4165905;28;20125;-71
2022/12/04 07:12:48;;;;;;;17.17;11.52;;;;;;;4.39;67.07;100478.03;4180721;28;20126;-71
2022/12/04 07:14:50;;;;;;;15.27;10.15;;;;;;;4.37;66.98;100483.13;4164634;28;20107;-71
2022/12/04 07:16:53;;;;;;;15.88;10.25;;;;;;;4.38;67.14;100484.91;4169598;28;20059;-70
2022/12/04 07:18:58;;;;;;;17.58;11.32;;;;;;;4.36;67.22;100481.38;4172249;28;20461;-71
2022/12/04 07:21:04;;;;;;;15.50;10.18;;;;;;;4.47;66.83;100480.09;4170315;28;20041;-71
2022/12/04 07:23:07;;;;;;;16.17;11.32;;;;;;;4.48;66.71;100483.53;4180381;28;20135;-71
2022/12/04 07:25:11;;;;;;;16.50;10.57;;;;;;;4.50;66.69;100482.78;4163540;28;20045;-71
2022/12/04 07:27:14;;;;;;;17.13;11.13;;;;;;;4.45;66.49;100479.13;4165329;28;20048;-70
2022/12/04 07:29:17;;;;;;;18.55;11.43;;;;;;;4.41;66.69;100478.97;4170142;28;20037;-71
2022/12/04 07:31:22;;;;;;;19.00;12.15;;;;;;;4.41;67.01;100487.59;4164754;28;20131;-72
2022/12/04 07:33:25;;;;;;;18.52;12.18;;;;;;;4.43;66.99;100482.50;4170107;28;20044;-72
2022/12/04 07:35:29;;;;;;;21.75;13.45;;;;;;;4.35;67.02;100487.31;4168166;28;20063;-71
2022/12/04 07:37:35;;;;;;;17.13;10.90;;;;;;;4.32;67.18;100489.78;4173530;28;20091;-71
2022/12/04 07:39:38;;;;;;;18.50;12.57;;;;;;;4.27;67.48;100489.59;4173917;28;20033;-71
2022/12/04 07:41:41;;;;;;;22.17;15.05;;;;;;;4.37;67.37;100496.00;4173585;28;20087;-71
2022/12/04 07:43:44;;;;;;;18.85;13.02;;;;;;;4.45;66.95;100492.00;4169977;28;20129;-71
2022/12/04 07:45:47;;;;;;;15.40;10.65;;;;;;;4.43;66.95;100488.50;4176840;28;20053;-72
2022/12/04 07:47:50;;;;;;;18.73;11.10;;;;;;;4.44;66.70;100492.84;4167974;28;20061;-72
2022/12/04 07:49:53;;;;;;;18.88;11.77;;;;;;;4.42;67.10;100488.44;4179132;28;20033;-72
2022/12/04 07:51:57;;;;;;;14.50;9.52;;;;;;;4.44;67.04;100484.22;4166292;28;20427;-72
2022/12/04 07:54:00;;;;;;;16.33;10.52;;;;;;;4.42;67.23;100480.72;4171538;28;20049;-72
2022/12/04 07:56:07;;;;;;;14.77;10.27;;;;;;;4.44;67.07;100479.09;4173396;28;20038;-71
2022/12/04 07:58:09;;;;;;;19.48;11.05;;;;;;;4.39;67.02;100476.34;4167451;28;20414;-71
2022/12/04 08:00:14;;;;;;;16.65;11.20;;;;;;;4.38;67.10;100482.31;4177812;28;20040;-71
2022/12/04 08:02:17;;;;;;;14.68;10.35;;;;;;;4.37;67.27;100484.00;4171676;28;20094;-71
2022/12/04 08:04:20;;;;;;;14.32;9.10;;;;;;;4.32;67.43;100485.53;4174690;28;20045;-71
2022/12/04 08:06:24;;;;;;;16.10;10.43;;;;;;;4.39;67.57;100485.75;4173227;28;20483;-71
2022/12/04 08:08:29;;;;;;;14.68;9.77;;;;;;;4.36;67.73;100483.94;4174042;28;20037;-71
2022/12/04 08:10:31;;;;;;;15.30;10.68;;;;;;;4.40;67.60;100485.81;4175324;28;20040;-71
2022/12/04 08:12:34;;;;;;;15.82;10.07;;;;;;;4.45;67.90;100480.84;4174134;28;20041;-71
2022/12/04 08:14:37;;;;;;;16.25;10.68;;;;;;;4.50;67.38;100476.78;4171917;28;20454;-71
2022/12/04 08:16:40;;;;;;;14.43;9.43;;;;;;;4.52;67.13;100478.56;4172038;28;20091;-71
2022/12/04 08:18:47;;;;;;;15.55;10.25;;;;;;;4.48;67.06;100479.28;4172373;28;20091;-71
2022/12/04 08:20:50;;;;;;;15.38;10.05;;;;;;;4.54;67.14;100478.63;4163613;28;20060;-71
2022/12/04 08:22:53;;;;;;;15.55;10.35;;;;;;;4.44;67.21;100479.97;4177599;28;20499;-71
2022/12/04 08:24:57;;;;;;;16.50;11.52;;;;;;;4.53;67.26;100475.19;4166671;28;20388;-71
2022/12/04 08:27:00;;;;;;;;;;;;;;;4.42;67.16;100476.44;4166222;28;20044;-71
2022/12/04 08:29:05;;;;;;;17.67;9.75;;;;;;;4.37;67.70;100472.84;4176278;28;20142;-72
2022/12/04 08:31:11;;;;;;;13.35;9.10;;;;;;;4.37;67.95;100467.69;4171232;28;20538;-72
2022/12/04 08:33:14;;;;;;;14.68;9.45;;;;;;;4.42;68.11;100468.72;4167044;28;20052;-72
2022/12/04 08:35:17;;;;;;;13.82;9.48;;;;;;;4.50;67.94;100464.75;4172730;28;20033;-72
2022/12/04 08:37:20;;;;;;;14.10;9.63;;;;;;;4.49;67.64;100465.56;4171481;28;20033;-72
2022/12/04 08:39:23;;;;;;;15.20;10.05;;;;;;;4.54;67.94;100476.03;4169985;28;20037;-72
2022/12/04 08:41:27;;;;;;;15.98;10.95;;;;;;;4.55;67.78;100477.81;4179814;28;20087;-72
2022/12/04 08:43:30;;;;;;;;;;;;;;;4.51;67.86;100471.69;4163253;28;20037;-71
2022/12/04 08:45:33;;;;;;;15.57;10.05;;;;;;;4.61;67.67;100480.63;4164490;28;19921;-72
2022/12/04 08:47:36;;;;;;;16.90;11.10;;;;;;;4.68;67.57;100467.16;4169250;28;20376;-72
2022/12/04 08:49:40;;;;;;;15.82;10.55;;;;;;;4.53;68.04;100480.31;4172010;28;20037;-71
2022/12/04 08:51:42;;;;;;;16.50;11.15;;;;;;;4.53;68.24;100474.31;4155595;28;20472;-72
2022/12/04 08:53:45;;;;;;;21.58;13.73;;;;;;;4.63;67.90;100480.66;4166134;28;20045;-71
2022/12/04 08:55:49;;;;;;;18.17;10.98;;;;;;;4.68;68.00;100484.31;4172561;28;20037;-72
2022/12/04 08:57:53;;;;;;;15.90;9.90;;;;;;;4.67;67.60;100478.31;4169747;28;20091;-72
2022/12/04 08:59:56;;;;;;;16.33;10.52;;;;;;;4.69;67.29;100480.94;4171316;28;20038;-72
2022/12/04 09:01:59;;;;;;;16.30;10.38;;;;;;;4.71;67.19;100484.44;4172217;28;20482;-71
2022/12/04 09:04:02;;;;;;;14.40;9.88;;;;;;;4.70;67.47;100472.38;4168973;28;20087;-71
2022/12/04 09:06:07;;;;;;;17.27;11.13;;;;;;;4.68;67.61;100476.59;4172048;28;20450;-71
2022/12/04 09:08:10;;;;;;;16.27;10.43;;;;;;;4.60;67.46;100471.16;4174750;28;20517;-71
2022/12/04 09:10:13;;;;;;;16.63;10.38;;;;;;;4.59;67.64;100471.09;4171458;28;20037;-72
2022/12/04 09:12:16;;;;;;;15.65;11.35;;;;;;;4.48;67.90;100489.59;4164389;28;20056;-72
2022/12/04 09:14:24;;;;;;;17.25;11.23;;;;;;;4.53;67.60;100480.31;4170868;28;20036;-72
2022/12/04 09:16:27;;;;;;;16.42;11.48;;;;;;;4.60;67.61;100478.88;4172331;28;20041;-72
2022/12/04 09:18:30;;;;;;;18.15;11.32;;;;;;;4.62;67.58;100473.78;4171770;28;20049;-72
2022/12/04 09:20:33;;;;;;;16.65;10.70;;;;;;;4.51;67.91;100476.81;4172290;28;20455;-72
2022/12/04 09:22:37;;;;;;;17.35;11.45;;;;;;;4.45;68.31;100486.00;4172633;28;20433;-72
2022/12/04 09:25:00;;;;;;;15.80;10.77;;;;;;;4.32;69.21;100492.34;4169921;28;20049;-71
2022/12/04 09:27:03;;;;;;;17.27;11.40;;;;;;;4.39;69.00;100490.91;4165903;28;20414;-72
2022/12/04 09:29:11;;;;;;;17.55;10.80;;;;;;;4.49;69.08;100498.16;4171367;28;20110;-74
2022/12/04 09:31:17;;;;;;;19.20;10.75;;;;;;;4.62;67.96;100494.38;4174419;28;20120;-73
2022/12/04 09:33:20;;;;;;;16.27;10.55;;;;;;;4.50;68.38;100487.94;4167962;28;20100;-73
2022/12/04 09:35:23;;;;;;;17.25;10.98;;;;;;;4.52;71.05;100490.56;4163945;28;20038;-66
2022/12/04 09:37:26;;;;;;;17.80;11.57;;;;;;;4.68;71.33;100485.19;4164877;28;20121;-66
2022/12/04 09:39:28;;;;;;;15.73;11.30;;;;;;;4.79;68.71;100488.19;4171097;28;20037;-69
2022/12/04 09:42:03;;;;;;;16.63;10.95;;;;;;;4.78;68.02;100494.16;4170787;28;20037;-69
2022/12/04 09:44:14;;;;;;;17.05;11.07;;;;;;;4.70;68.06;100487.81;4167432;28;20069;-68
2022/12/04 09:46:35;;;;;;;15.85;10.75;;;;;;;4.70;68.32;100495.53;4173878;28;20084;-69
2022/12/04 09:48:42;;;;;;;18.90;10.52;;;;;;;4.76;67.80;100498.38;4167261;28;20037;-69
2022/12/04 09:50:47;;;;;;;20.08;11.70;;;;;;;4.69;68.13;100493.81;4167133;28;20037;-69